CYHI

Ulukhaktok Holman Airport

Ulukhaktok, Northwest Territories, Canada
METAR CYHI 172100Z 02007KT 15SM FEW090 FEW120 FEW170 FEW190 FEW240 M27/M30 A3035 RMK AC1AC1AC1AC1CI1 AC TR AC TR AC TR AC TR CI TR LENT E/SE SLP284
Observed Flight Rules
Nov-17 @ 21:00 UTC (39 minutes ago) Visual Flight Rules
Wind Visibility Clouds
20° at 7 knots 15 miles
  • Few at 9,000' AGL
  • Few at 12,000' AGL
  • Few at 17,000' AGL
  • Few at 19,000' AGL
Temperatures Readings
Current -27°C / -17°F
Dewpoint -30°C / -22°F
Humidity 76%
Altimeter 30.35" Hg
Pressure 1028.4 hPa
Elevation 36
METAR CYHI 172100Z 02007KT 15SM FEW090 FEW120 FEW170 FEW190 FEW240 M27/M30 A3035 RMK AC1AC1AC1AC1CI1 AC TR AC TR AC TR AC TR CI TR LENT E/SE SLP284
Observed Flight Rules
Nov-17 @ 21:00 UTC
(39 minutes ago)
VFR
Wind Visibility
20° at 7 knots 15 miles
Clouds
  • Few at 9,000' AGL
  • Few at 12,000' AGL
  • Few at 17,000' AGL
  • Few at 19,000' AGL
Temperature Dewpoint
-27°C / -17°F -30°C / -22°F
Humidity Altimeter Pressure
76% 30.35" Hg 1028.4 hPa